Time;durP1;ratioP1;P1;durP2;ratioP2;P2;SDS_P1;SDS_P2;PMS_P1;PMS_P2;Temp;Humidity;BMP_temperature;BMP_pressure;BME280_temperature;BME280_humidity;BME280_pressure;Samples;Min_cycle;Max_cycle;Signal;HPM_P1;HPM_P2
2023/05/30 00:01:56;;;;;;;7.70;3.42;;;;;;;;;;6321360;22;20166;-90
2023/05/30 00:05:02;;;;;;;6.35;3.22;;;;;;;;;;6322437;22;20231;-92
2023/05/30 00:08:08;;;;;;;11.50;3.40;;;;;;;;;;6307998;22;20165;-92
2023/05/30 00:11:14;;;;;;;4.65;2.80;;;;;;;;;;6305434;22;20272;-93
2023/05/30 00:14:21;;;;;;;8.07;3.30;;;;;;;;;;6306081;22;20141;-92
2023/05/30 00:17:26;;;;;;;9.63;3.10;;;;;;;;;;6322768;22;20211;-91
2023/05/30 00:20:33;;;;;;;5.75;2.92;;;;;;;;;;6304870;22;20149;-92
2023/05/30 00:23:45;;;;;;;10.60;3.42;;;;;;;;;;6305141;22;20180;-90
2023/05/30 00:26:53;;;;;;;9.77;3.20;;;;;;;;;;6304068;22;20177;-91
2023/05/30 00:29:58;;;;;;;8.90;3.35;;;;;;;;;;6306419;22;20296;-92
2023/05/30 00:33:03;;;;;;;9.45;3.20;;;;;;;;;;6304169;22;20164;-93
2023/05/30 00:36:09;;;;;;;8.95;3.30;;;;;;;;;;6303433;22;20173;-92
2023/05/30 00:39:17;;;;;;;6.28;3.05;;;;;;;;;;6319788;22;20208;-91
2023/05/30 00:42:23;;;;;;;9.43;3.38;;;;;;;;;;6321095;22;20169;-92
2023/05/30 00:45:28;;;;;;;5.65;3.13;;;;;;;;;;6304565;22;20192;-93
2023/05/30 00:48:33;;;;;;;6.68;3.47;;;;;;;;;;6323924;22;20165;-93
2023/05/30 00:51:38;;;;;;;7.60;3.38;;;;;;;;;;6304844;22;20165;-93
2023/05/30 00:54:47;;;;;;;6.68;3.42;;;;;;;;;;6321090;22;20164;-90
2023/05/30 00:57:52;;;;;;;7.22;3.22;;;;;;;;;;6303875;22;20165;-92
2023/05/30 01:00:59;;;;;;;10.32;3.67;;;;;;;;;;6304974;22;20209;-92
2023/05/30 01:04:08;;;;;;;10.90;3.10;;;;;;;;;;6322777;22;20283;-93
2023/05/30 01:07:14;;;;;;;7.25;3.20;;;;;;;;;;6321386;22;20169;-92
2023/05/30 01:10:22;;;;;;;18.10;3.95;;;;;;;;;;6303223;22;20160;-88
2023/05/30 01:13:31;;;;;;;7.35;2.97;;;;;;;;;;6303654;22;20153;-91
2023/05/30 01:16:40;;;;;;;5.20;2.75;;;;;;;;;;6302683;22;20157;-91
2023/05/30 01:20:07;;;;;;;8.30;3.20;;;;;;;;;;6303303;22;20169;-92
2023/05/30 01:23:39;;;;;;;6.13;3.25;;;;;;;;;;6301453;22;20187;-91
2023/05/30 01:31:06;;;;;;;6.35;2.97;;;;;;;;;;6318687;22;20487;-91
2023/05/30 01:34:12;;;;;;;5.43;2.95;;;;;;;;;;6300965;22;20145;-91
2023/05/30 01:37:17;;;;;;;6.35;3.45;;;;;;;;;;6301780;22;20227;-92
2023/05/30 01:40:24;;;;;;;5.18;2.92;;;;;;;;;;6301954;22;20245;-92
2023/05/30 01:43:38;;;;;;;5.53;3.00;;;;;;;;;;6319702;22;20476;-94
2023/05/30 01:46:47;;;;;;;6.45;2.80;;;;;;;;;;6320152;22;20169;-93
2023/05/30 01:49:57;;;;;;;7.43;3.38;;;;;;;;;;6320079;22;20176;-91
2023/05/30 01:53:03;;;;;;;9.88;3.28;;;;;;;;;;6303598;22;20140;-92
2023/05/30 01:56:09;;;;;;;8.35;2.90;;;;;;;;;;6303156;22;20180;-92
2023/05/30 01:59:16;;;;;;;9.30;3.17;;;;;;;;;;6320331;22;20188;-92
2023/05/30 02:02:23;;;;;;;4.88;3.08;;;;;;;;;;6302892;22;20164;-91
2023/05/30 02:05:28;;;;;;;8.52;3.78;;;;;;;;;;6289086;22;20307;-92
2023/05/30 02:08:33;;;;;;;9.77;2.90;;;;;;;;;;6289211;22;20158;-93
2023/05/30 02:11:38;;;;;;;5.43;3.00;;;;;;;;;;6290014;22;20220;-94
2023/05/30 02:14:43;;;;;;;9.10;3.38;;;;;;;;;;6287986;22;20306;-91
2023/05/30 02:17:50;;;;;;;13.70;3.40;;;;;;;;;;6287748;22;20149;-89
2023/05/30 02:20:55;;;;;;;7.40;3.65;;;;;;;;;;6289851;22;20261;-91
2023/05/30 02:24:08;;;;;;;6.30;3.13;;;;;;;;;;6289753;22;20205;-93
2023/05/30 02:27:55;;;;;;;7.60;3.45;;;;;;;;;;6289251;22;20185;-91
2023/05/30 02:31:03;;;;;;;5.90;3.30;;;;;;;;;;6290390;22;20166;-89
2023/05/30 02:34:10;;;;;;;5.55;3.13;;;;;;;;;;6290136;22;20162;-93
2023/05/30 02:37:15;;;;;;;7.47;2.90;;;;;;;;;;6291491;22;20150;-92
2023/05/30 02:40:20;;;;;;;11.02;3.28;;;;;;;;;;6291152;22;20162;-92
2023/05/30 02:43:26;;;;;;;6.97;3.30;;;;;;;;;;6291535;22;20157;-91
2023/05/30 02:46:31;;;;;;;6.80;3.25;;;;;;;;;;6290065;22;20213;-90
2023/05/30 02:49:37;;;;;;;8.65;3.60;;;;;;;;;;6291198;22;20157;-91
2023/05/30 02:52:42;;;;;;;6.68;3.08;;;;;;;;;;6291966;22;20244;-91
2023/05/30 02:55:48;;;;;;;6.93;3.13;;;;;;;;;;6290751;22;20157;-91
2023/05/30 02:59:19;;;;;;;7.70;3.08;;;;;;;;;;6289918;22;20162;-91
2023/05/30 03:02:31;;;;;;;4.82;2.78;;;;;;;;;;6290571;22;20149;-92
2023/05/30 03:05:46;;;;;;;5.78;3.45;;;;;;;;;;6291235;22;20208;-93
2023/05/30 03:08:58;;;;;;;7.03;3.20;;;;;;;;;;6290778;22;20170;-91
2023/05/30 03:12:05;;;;;;;6.85;3.08;;;;;;;;;;6289381;22;20216;-92
2023/05/30 03:15:10;;;;;;;7.45;3.20;;;;;;;;;;6288833;22;20208;-89
2023/05/30 03:18:16;;;;;;;6.22;3.20;;;;;;;;;;6290027;22;20720;-92
2023/05/30 03:21:23;;;;;;;6.25;3.17;;;;;;;;;;6290454;22;20162;-93
2023/05/30 03:25:13;;;;;;;6.22;3.30;;;;;;;;;;6290725;22;20653;-92
2023/05/30 03:28:24;;;;;;;8.98;3.60;;;;;;;;;;6289305;22;20166;-92
2023/05/30 03:31:48;;;;;;;8.80;3.67;;;;;;;;;;6289942;22;20197;-92
2023/05/30 03:34:54;;;;;;;11.13;3.70;;;;;;;;;;6291375;22;20165;-91
2023/05/30 03:38:04;;;;;;;6.95;3.95;;;;;;;;;;6290852;22;20208;-92
2023/05/30 03:41:09;;;;;;;9.35;3.75;;;;;;;;;;6291273;22;20169;-90
2023/05/30 03:44:15;;;;;;;8.18;3.30;;;;;;;;;;6294759;22;20161;-93
2023/05/30 03:47:20;;;;;;;7.70;3.33;;;;;;;;;;6291907;22;20174;-93
2023/05/30 03:50:26;;;;;;;7.63;3.33;;;;;;;;;;6291011;22;20174;-92
2023/05/30 03:53:33;;;;;;;7.30;3.22;;;;;;;;;;6291558;22;20161;-92
2023/05/30 03:56:38;;;;;;;7.55;3.30;;;;;;;;;;6292013;22;20200;-93
2023/05/30 03:59:47;;;;;;;8.00;3.45;;;;;;;;;;6294325;22;20146;-93
2023/05/30 04:03:11;;;;;;;9.00;3.70;;;;;;;;;;6293337;22;20610;-93
2023/05/30 04:06:24;;;;;;;13.93;3.60;;;;;;;;;;6293693;22;20241;-92
2023/05/30 04:09:33;;;;;;;8.35;3.25;;;;;;;;;;6293298;22;20166;-94
2023/05/30 04:12:38;;;;;;;5.53;2.88;;;;;;;;;;6292231;22;20145;-92
2023/05/30 04:15:44;;;;;;;5.80;3.00;;;;;;;;;;6291407;22;20178;-91
2023/05/30 04:18:49;;;;;;;9.48;3.08;;;;;;;;;;6293401;22;20204;-92
2023/05/30 04:21:54;;;;;;;9.00;3.47;;;;;;;;;;6292239;22;20213;-92
2023/05/30 04:25:02;;;;;;;6.25;3.30;;;;;;;;;;6292788;22;20229;-91
2023/05/30 04:28:16;;;;;;;6.78;2.95;;;;;;;;;;6291742;22;20162;-90
2023/05/30 04:31:22;;;;;;;6.55;3.60;;;;;;;;;;6293874;22;20225;-92
2023/05/30 04:34:29;;;;;;;8.45;3.38;;;;;;;;;;6294253;22;20166;-91
2023/05/30 04:37:38;;;;;;;8.10;3.60;;;;;;;;;;6293743;22;20193;-90
2023/05/30 04:40:48;;;;;;;9.63;3.88;;;;;;;;;;6293903;22;20170;-93
2023/05/30 04:43:57;;;;;;;9.00;3.55;;;;;;;;;;6291412;22;20200;-93
2023/05/30 04:50:24;;;;;;;9.32;3.45;;;;;;;;;;6292352;22;20162;-92
2023/05/30 04:53:29;;;;;;;8.02;3.78;;;;;;;;;;6294324;22;20174;-93
2023/05/30 04:56:38;;;;;;;10.20;3.50;;;;;;;;;;6294410;22;20153;-91
2023/05/30 04:59:53;;;;;;;11.30;3.50;;;;;;;;;;6294968;22;20643;-92
2023/05/30 05:02:59;;;;;;;7.65;3.55;;;;;;;;;;6294236;22;20166;-93
2023/05/30 05:06:05;;;;;;;12.77;3.85;;;;;;;;;;6294220;22;20200;-91
2023/05/30 05:09:10;;;;;;;7.50;3.35;;;;;;;;;;6293385;22;20170;-92
2023/05/30 05:12:17;;;;;;;14.15;4.13;;;;;;;;;;6292692;22;20162;-89
2023/05/30 05:15:22;;;;;;;7.13;3.58;;;;;;;;;;6291604;22;20170;-93
2023/05/30 05:18:27;;;;;;;8.95;3.72;;;;;;;;;;6293827;22;20161;-92
2023/05/30 05:21:33;;;;;;;9.18;3.78;;;;;;;;;;6291627;22;20170;-93
2023/05/30 05:24:38;;;;;;;20.67;4.70;;;;;;;;;;6292349;22;20221;-92
2023/05/30 05:31:33;;;;;;;11.10;3.80;;;;;;;;;;6296580;22;20191;-92
2023/05/30 05:34:38;;;;;;;13.65;4.30;;;;;;;;;;6293814;22;20223;-93
2023/05/30 22:55:53;;;;;;;8.52;3.22;;;;;;;;;;6290888;22;20217;-89
2023/05/30 22:58:59;;;;;;;9.55;3.40;;;;;;;;;;6305629;22;20184;-93
2023/05/30 23:02:04;;;;;;;7.63;3.17;;;;;;;;;;6305411;22;20165;-93
2023/05/30 23:05:10;;;;;;;8.25;3.28;;;;;;;;;;6323098;22;20190;-90
2023/05/30 23:08:16;;;;;;;12.85;4.30;;;;;;;;;;6306293;22;20169;-89
2023/05/30 23:11:23;;;;;;;12.48;3.17;;;;;;;;;;6323672;22;20608;-91
2023/05/30 23:14:28;;;;;;;7.38;3.13;;;;;;;;;;6324576;22;20170;-92
2023/05/30 23:21:23;;;;;;;9.02;3.22;;;;;;;;;;6307174;22;20176;-94
2023/05/30 23:24:28;;;;;;;11.48;3.80;;;;;;;;;;6323983;22;20232;-90
2023/05/30 23:31:56;;;;;;;25.27;4.30;;;;;;;;;;6324479;22;20149;-92
2023/05/30 23:35:01;;;;;;;12.15;3.63;;;;;;;;;;6324365;22;20157;-92
2023/05/30 23:38:06;;;;;;;13.27;3.50;;;;;;;;;;6325125;22;20216;-89
2023/05/30 23:41:16;;;;;;;11.63;3.40;;;;;;;;;;6322912;22;20169;-92
2023/05/30 23:44:22;;;;;;;9.20;3.25;;;;;;;;;;6305277;22;20188;-90
2023/05/30 23:47:29;;;;;;;8.23;3.50;;;;;;;;;;6307066;22;20193;-89
2023/05/30 23:50:35;;;;;;;9.32;3.22;;;;;;;;;;6323607;22;20213;-92
2023/05/30 23:53:43;;;;;;;10.50;3.30;;;;;;;;;;6323422;22;20205;-92
2023/05/30 23:56:48;;;;;;;6.78;3.08;;;;;;;;;;6304312;22;20514;-93
2023/05/30 23:59:53;;;;;;;13.30;3.63;;;;;;;;;;6307187;22;20144;-92
